Time;durP1;ratioP1;P1;durP2;ratioP2;P2;SDS_P1;SDS_P2;PMS_P1;PMS_P2;Temp;Humidity;BMP_temperature;BMP_pressure;BME280_temperature;BME280_humidity;BME280_pressure;Samples;Min_cycle;Max_cycle;Signal;HPM_P1;HPM_P2
2023/04/19 00:02:17;;;;;;;53.38;32.58;;;;;;;15.35;49.93;93686.41;4949672;28;20040;-90
2023/04/19 00:04:43;;;;;;;50.15;33.53;;;;;;;15.34;49.80;93672.03;4955597;28;20039;-91
2023/04/19 00:07:09;;;;;;;46.90;31.13;;;;;;;15.33;49.72;93677.97;4933929;28;20055;-90
2023/04/19 00:09:34;;;;;;;51.92;33.35;;;;;;;15.32;49.49;93668.31;4953852;28;20042;-90
2023/04/19 00:12:00;;;;;;;46.70;30.77;;;;;;;15.36;49.67;93680.47;4950672;28;20040;-91
2023/04/19 00:14:25;;;;;;;51.33;32.22;;;;;;;15.31;49.97;93681.19;4945686;28;20097;-91
2023/04/19 00:16:51;;;;;;;54.90;31.95;;;;;;;15.36;49.54;93679.72;4935377;28;20043;-90
2023/04/19 00:19:16;;;;;;;43.00;30.77;;;;;;;15.38;49.67;93674.53;4968107;28;20504;-90
2023/04/19 00:21:42;;;;;;;50.83;33.45;;;;;;;15.41;49.46;93673.56;4941053;28;20046;-90
2023/04/19 00:24:07;;;;;;;46.15;31.08;;;;;;;15.33;49.74;93676.00;4953251;28;20626;-90
2023/04/19 00:26:32;;;;;;;50.47;30.75;;;;;;;15.33;49.66;93673.28;4953642;28;20035;-90
2023/04/19 00:28:58;;;;;;;52.30;30.55;;;;;;;15.34;49.42;93668.56;4955640;28;20054;-90
2023/04/19 00:31:23;;;;;;;49.78;30.92;;;;;;;15.31;49.73;93664.84;4939050;28;20051;-91
2023/04/19 00:33:49;;;;;;;41.50;29.55;;;;;;;15.33;49.49;93659.66;4972535;28;20037;-90
2023/04/19 00:36:14;;;;;;;49.47;30.30;;;;;;;15.34;49.44;93657.69;4960932;28;20054;-91
2023/04/19 00:38:40;;;;;;;40.88;29.08;;;;;;;15.32;49.81;93651.97;4953219;28;20043;-90
2023/04/19 00:41:05;;;;;;;44.75;29.15;;;;;;;15.32;49.82;93652.72;4955413;28;20046;-90
2023/04/19 00:43:31;;;;;;;44.60;29.08;;;;;;;15.37;49.82;93646.53;4972185;28;20054;-90
2023/04/19 00:45:56;;;;;;;45.22;29.38;;;;;;;15.36;49.58;93649.78;4972431;28;20035;-90
2023/04/19 00:48:21;;;;;;;44.63;28.95;;;;;;;15.33;49.75;93648.75;4987784;28;20049;-91
2023/04/19 00:50:47;;;;;;;44.90;29.58;;;;;;;15.33;49.83;93645.28;4988441;28;20077;-91
2023/04/19 00:53:12;;;;;;;41.30;27.20;;;;;;;15.36;49.55;93641.59;4987523;28;20046;-90
2023/04/19 00:55:38;;;;;;;41.47;27.85;;;;;;;15.33;49.60;93637.88;4974698;28;20399;-90
2023/04/19 00:58:04;;;;;;;40.42;28.05;;;;;;;15.33;49.66;93635.13;4964117;28;20074;-90
2023/04/19 01:00:30;;;;;;;39.22;25.98;;;;;;;15.32;49.76;93636.38;4945630;28;20074;-90
2023/04/19 01:02:55;;;;;;;42.67;27.63;;;;;;;15.30;49.81;93627.94;4943255;28;20479;-91
2023/04/19 01:05:21;;;;;;;43.65;29.25;;;;;;;15.31;49.75;93632.16;4960869;28;20046;-90
2023/04/19 01:07:50;;;;;;;39.80;27.67;;;;;;;15.31;49.51;93631.41;4948954;28;20043;-90
2023/04/19 01:10:15;;;;;;;53.55;28.92;;;;;;;15.31;49.74;93629.44;4928965;28;20105;-90
2023/04/19 01:12:41;;;;;;;43.28;27.05;;;;;;;15.35;49.73;93631.94;4933856;28;20051;-91
2023/04/19 01:15:07;;;;;;;34.60;25.35;;;;;;;15.32;49.54;93628.19;4936343;28;20035;-90
2023/04/19 01:17:32;;;;;;;40.03;26.20;;;;;;;15.34;49.73;93622.28;4958782;28;20042;-91
2023/04/19 01:20:05;;;;;;;42.63;25.48;;;;;;;15.33;49.75;93626.22;4956033;28;20497;-91
2023/04/19 01:22:31;;;;;;;38.63;25.83;;;;;;;15.30;49.77;93613.56;4979534;28;20046;-91
2023/04/19 01:24:56;;;;;;;38.63;25.67;;;;;;;15.32;49.75;93620.03;4936402;28;20043;-90
2023/04/19 01:27:22;;;;;;;41.95;27.58;;;;;;;15.32;49.27;93616.56;4941080;28;20080;-90
2023/04/19 01:29:48;;;;;;;34.65;25.25;;;;;;;15.33;49.72;93607.91;4971488;28;20049;-90
2023/04/19 01:32:13;;;;;;;36.58;24.70;;;;;;;15.33;49.54;93599.72;4954614;28;20034;-91
2023/04/19 01:34:39;;;;;;;40.45;26.20;;;;;;;15.33;49.54;93604.44;4971561;28;20447;-90
2023/04/19 01:37:04;;;;;;;37.15;25.02;;;;;;;15.33;49.38;93607.16;4970749;28;20092;-90
2023/04/19 01:39:30;;;;;;;35.42;25.42;;;;;;;15.32;49.35;93597.50;4964714;28;20054;-90
2023/04/19 01:41:55;;;;;;;35.92;24.17;;;;;;;15.31;49.27;93594.03;4951255;28;20039;-90
2023/04/19 01:44:21;;;;;;;35.63;23.67;;;;;;;15.35;49.31;93599.25;4948884;28;20518;-90
2023/04/19 01:46:47;;;;;;;34.58;23.90;;;;;;;15.36;49.34;93598.75;4931318;28;20039;-90
2023/04/19 01:49:12;;;;;;;36.55;23.67;;;;;;;15.32;49.47;93590.06;4948945;28;20413;-91
2023/04/19 01:51:38;;;;;;;36.17;23.20;;;;;;;15.34;49.06;93595.03;4914460;29;20521;-90
2023/04/19 01:54:03;;;;;;;35.13;23.90;;;;;;;15.33;49.54;93596.25;4931829;28;20074;-91
2023/04/19 01:56:29;;;;;;;39.95;24.27;;;;;;;15.38;49.46;93590.06;4918261;28;20051;-90
2023/04/19 01:58:55;;;;;;;34.70;22.30;;;;;;;15.52;49.42;93583.75;4930521;28;20039;-91
2023/04/19 02:01:20;;;;;;;35.42;23.80;;;;;;;15.50;49.16;93580.75;4907065;28;20070;-90
2023/04/19 02:03:45;;;;;;;35.08;23.10;;;;;;;15.44;49.02;93590.88;4917211;28;20501;-90
2023/04/19 02:06:11;;;;;;;33.97;24.38;;;;;;;15.40;49.18;93576.72;4929449;28;20109;-90
2023/04/19 02:08:37;;;;;;;35.42;23.90;;;;;;;15.34;49.47;93575.97;4917551;28;20055;-90
2023/04/19 02:11:09;;;;;;;34.08;23.20;;;;;;;15.36;49.47;93574.25;4929163;28;20461;-90
2023/04/19 02:13:35;;;;;;;32.80;23.10;;;;;;;15.37;49.36;93564.81;4934033;28;20477;-90
2023/04/19 02:16:04;;;;;;;32.85;22.35;;;;;;;15.37;49.40;93569.56;4918038;28;20051;-90
2023/04/19 02:18:30;;;;;;;31.92;22.10;;;;;;;15.34;49.27;93567.78;4907770;29;20126;-91
2023/04/19 02:20:57;;;;;;;33.45;22.15;;;;;;;15.36;49.32;93576.22;4898319;29;20047;-90
2023/04/19 02:23:23;;;;;;;35.67;22.27;;;;;;;15.35;49.21;93578.19;4967497;28;20594;-90
2023/04/19 02:25:49;;;;;;;30.38;22.17;;;;;;;15.34;49.31;93565.06;4970533;28;20038;-90
2023/04/19 02:28:14;;;;;;;32.03;21.92;;;;;;;15.35;49.32;93563.84;4969925;28;20035;-91
2023/04/19 02:30:40;;;;;;;35.47;21.30;;;;;;;15.32;49.52;93557.38;4961097;28;20110;-91
2023/04/19 02:33:05;;;;;;;29.90;20.15;;;;;;;15.44;49.52;93560.91;4958507;28;20104;-90
2023/04/19 02:35:31;;;;;;;30.27;20.30;;;;;;;15.36;49.27;93554.44;4974115;28;20041;-90
2023/04/19 02:37:56;;;;;;;30.38;21.50;;;;;;;15.36;49.90;93563.34;4939508;28;20043;-90
2023/04/19 02:40:22;;;;;;;32.25;21.42;;;;;;;15.35;49.54;93558.41;4935941;28;20352;-91
2023/04/19 02:42:48;;;;;;;29.02;20.73;;;;;;;15.31;49.33;93563.31;4936715;28;20117;-90
2023/04/19 02:45:13;;;;;;;30.52;20.52;;;;;;;15.31;49.51;93553.16;4950824;28;20042;-91
2023/04/19 02:47:38;;;;;;;36.35;21.15;;;;;;;15.37;49.11;93550.47;4969181;28;20096;-91
2023/04/19 02:50:04;;;;;;;30.98;19.92;;;;;;;15.36;49.60;93557.91;4931091;28;20049;-90
2023/04/19 02:52:30;;;;;;;30.52;19.88;;;;;;;15.46;49.18;93552.25;4936602;28;20190;-90
2023/04/19 02:54:55;;;;;;;33.92;21.90;;;;;;;15.34;49.27;93548.72;4946647;28;20576;-91
2023/04/19 02:57:21;;;;;;;30.35;20.35;;;;;;;15.38;49.22;93541.78;4944729;28;20043;-90
2023/04/19 02:59:46;;;;;;;30.33;18.42;;;;;;;15.36;49.52;93535.38;4987979;28;20046;-91
2023/04/19 03:02:12;;;;;;;29.40;19.65;;;;;;;15.34;49.53;93537.84;4930587;28;20047;-90
2023/04/19 03:04:37;;;;;;;32.58;20.30;;;;;;;15.35;49.36;93537.34;4936182;28;20072;-90
2023/04/19 03:07:02;;;;;;;31.83;20.05;;;;;;;15.33;49.33;93528.91;4933595;28;20046;-90
2023/04/19 03:09:28;;;;;;;27.92;20.02;;;;;;;15.40;49.18;93530.41;4928411;29;20050;-90
2023/04/19 03:11:53;;;;;;;29.35;18.08;;;;;;;15.40;49.15;93530.41;4918417;29;20036;-90
2023/04/19 03:14:19;;;;;;;25.95;17.45;;;;;;;15.42;49.28;93520.53;4930276;28;20050;-90
2023/04/19 03:16:45;;;;;;;26.48;17.98;;;;;;;15.35;49.53;93522.97;4932491;28;20047;-90
2023/04/19 03:19:10;;;;;;;27.88;18.88;;;;;;;15.34;49.31;93519.50;4932697;28;20085;-90
2023/04/19 03:21:35;;;;;;;26.17;18.00;;;;;;;15.31;49.32;93520.50;4948643;28;20517;-90
2023/04/19 03:24:01;;;;;;;30.80;18.38;;;;;;;15.46;49.50;93509.41;4974723;28;20085;-90
2023/04/19 03:26:26;;;;;;;24.95;18.45;;;;;;;15.44;49.33;93511.88;4934353;28;20102;-90
2023/04/19 03:28:52;;;;;;;27.67;18.20;;;;;;;15.42;48.94;93506.91;4952249;28;20050;-91
2023/04/19 03:31:17;;;;;;;31.35;18.65;;;;;;;15.35;49.05;93498.47;4937634;28;20054;-90
2023/04/19 03:33:43;;;;;;;22.70;16.92;;;;;;;15.36;49.23;93506.16;4979572;28;20089;-91
2023/04/19 03:36:08;;;;;;;24.90;16.63;;;;;;;15.37;49.43;93502.16;4947584;28;20050;-90
2023/04/19 03:38:35;;;;;;;24.48;17.52;;;;;;;15.35;49.60;93501.94;4953223;28;20110;-91
2023/04/19 03:41:01;;;;;;;27.02;17.33;;;;;;;15.49;49.59;93494.06;4931573;28;20047;-91
2023/04/19 03:43:29;;;;;;;28.13;17.98;;;;;;;15.44;49.49;93498.25;4937375;28;20062;-95
2023/04/19 03:45:54;;;;;;;51.42;36.00;;;;;;;15.41;49.61;93496.50;4954432;28;20051;-90
2023/04/19 03:48:20;;;;;;;33.45;17.27;;;;;;;15.38;49.29;93494.75;4958318;28;20406;-89
2023/04/19 03:50:45;;;;;;;28.35;18.55;;;;;;;15.47;49.44;93491.81;4966145;28;20043;-92
2023/04/19 03:53:11;;;;;;;29.83;18.35;;;;;;;15.46;49.32;93487.59;4939376;28;20043;-90
2023/04/19 03:55:37;;;;;;;34.03;18.98;;;;;;;15.41;49.24;93491.03;4938651;28;20039;-88
2023/04/19 03:58:04;;;;;;;28.52;18.52;;;;;;;15.40;49.22;93484.84;4950056;28;20047;-91
2023/04/19 04:00:31;;;;;;;46.47;24.58;;;;;;;15.27;49.13;93484.56;4942898;28;20624;-89
2023/04/19 04:02:58;;;;;;;105.78;35.38;;;;;;;15.16;48.88;93483.75;4942725;28;20051;-92
2023/04/19 04:05:23;;;;;;;95.13;31.60;;;;;;;15.02;49.19;93485.41;4927313;28;20054;-91
2023/04/19 04:07:49;;;;;;;336.80;216.63;;;;;;;15.01;49.58;93487.41;4956339;28;20110;-91
2023/04/19 04:10:14;;;;;;;95.65;31.27;;;;;;;14.95;49.43;93492.06;4935896;28;20436;-93
2023/04/19 04:12:41;;;;;;;132.70;33.53;;;;;;;15.04;49.65;93477.50;4926170;28;20094;-91
2023/04/19 04:15:07;;;;;;;101.82;32.33;;;;;;;14.98;49.28;93482.91;4922953;28;20331;-92
2023/04/19 04:17:33;;;;;;;123.93;35.72;;;;;;;15.06;49.21;93488.66;4920343;28;20124;-91
2023/04/19 04:19:59;;;;;;;129.15;37.85;;;;;;;15.19;49.81;93483.53;4913802;28;20059;-91
2023/04/19 04:22:24;;;;;;;124.45;39.88;;;;;;;15.19;49.21;93483.53;4926923;28;20540;-92
2023/04/19 04:24:52;;;;;;;122.53;40.78;;;;;;;15.21;49.62;93481.06;4911783;28;20046;-95
2023/04/19 04:27:20;;;;;;;129.27;42.22;;;;;;;15.29;49.29;93473.19;4934554;28;20130;-91
2023/04/19 04:29:46;;;;;;;173.05;44.97;;;;;;;15.17;49.09;93485.25;4922516;28;20046;-90
2023/04/19 04:32:13;;;;;;;164.85;49.47;;;;;;;15.17;49.33;93494.16;4928825;28;20039;-91
2023/04/19 04:34:38;;;;;;;417.02;150.80;;;;;;;15.18;49.57;93495.66;4938955;28;20070;-89
2023/04/19 04:37:07;;;;;;;157.27;48.05;;;;;;;15.25;49.86;93489.75;4949519;28;20042;-92
2023/04/19 04:39:37;;;;;;;126.25;45.65;;;;;;;15.23;49.65;93489.47;4962980;28;20058;-91
2023/04/19 04:42:06;;;;;;;130.55;43.63;;;;;;;15.23;49.34;93486.75;4948738;28;20050;-91
2023/04/19 04:44:34;;;;;;;142.60;48.45;;;;;;;15.25;49.26;93481.56;4962166;28;20039;-90
2023/04/19 04:47:00;;;;;;;130.32;46.50;;;;;;;15.34;49.62;93486.81;4966655;28;20046;-89
2023/04/19 04:49:25;;;;;;;137.98;47.08;;;;;;;15.28;49.32;93488.78;4957140;28;20045;-91
2023/04/19 04:51:51;;;;;;;156.20;64.00;;;;;;;15.40;49.33;93482.13;4942197;28;20074;-93
2023/04/19 04:54:17;;;;;;;169.40;61.22;;;;;;;15.34;49.14;93478.66;4975750;28;20030;-92
2023/04/19 04:56:43;;;;;;;177.25;62.10;;;;;;;15.35;49.48;93479.41;4967208;28;20066;-93
2023/04/19 04:59:08;;;;;;;244.93;72.55;;;;;;;15.50;49.18;93474.50;4944164;28;20594;-91
2023/04/19 05:01:34;;;;;;;260.15;78.53;;;;;;;15.38;49.36;93470.97;5005423;23;20054;-93
2023/04/19 05:04:02;;;;;;;203.40;73.03;;;;;;;15.48;49.30;93470.78;4979237;28;20042;-93
2023/04/19 05:06:27;;;;;;;215.75;80.95;;;;;;;15.44;49.52;93479.19;4973010;28;20050;-90
2023/04/19 05:08:53;;;;;;;222.93;79.07;;;;;;;15.46;49.40;93470.50;4991367;28;20096;-89
2023/04/19 05:11:19;;;;;;;221.20;80.40;;;;;;;15.48;49.40;93465.31;4967760;28;20129;-90
2023/04/19 05:13:44;;;;;;;214.02;77.95;;;;;;;15.49;49.37;93470.28;4970251;28;20042;-89
2023/04/19 05:16:10;;;;;;;221.65;83.40;;;;;;;15.48;49.16;93466.06;4987900;28;20038;-90
2023/04/19 05:18:35;;;;;;;234.23;83.55;;;;;;;15.43;49.53;93470.25;4950807;28;20031;-89
2023/04/19 05:21:01;;;;;;;433.13;223.48;;;;;;;15.47;49.25;93470.03;4970105;28;20057;-89
2023/04/19 05:23:26;;;;;;;197.75;84.80;;;;;;;15.50;48.68;93460.13;4969156;28;20059;-89
2023/04/19 05:25:52;;;;;;;218.38;83.88;;;;;;;15.60;49.51;93467.63;4975755;28;20042;-88
2023/04/19 05:28:17;;;;;;;165.63;77.88;;;;;;;15.61;49.08;93458.19;4976035;28;20050;-87
2023/04/19 05:30:43;;;;;;;182.60;77.45;;;;;;;15.64;48.93;93451.78;4950955;28;20046;-90
2023/04/19 05:33:08;;;;;;;194.55;82.63;;;;;;;15.60;48.88;93451.25;4959328;28;20045;-90
2023/04/19 05:35:33;;;;;;;241.93;129.43;;;;;;;15.62;48.95;93448.78;4968450;28;20058;-89
2023/04/19 05:37:59;;;;;;;198.70;85.63;;;;;;;15.72;49.36;93443.88;4983055;28;20127;-91
2023/04/19 05:40:26;;;;;;;210.75;92.15;;;;;;;15.65;48.78;93436.16;4961297;28;20510;-90
2023/04/19 05:42:52;;;;;;;222.75;98.03;;;;;;;15.61;49.23;93438.38;4993615;28;20034;-92
2023/04/19 05:45:19;;;;;;;219.65;101.82;;;;;;;15.61;48.63;93433.69;4948325;28;20078;-89
2023/04/19 05:47:46;;;;;;;246.68;110.05;;;;;;;15.57;48.89;93437.91;4992277;28;20424;-89
2023/04/19 05:50:13;;;;;;;239.07;111.10;;;;;;;15.64;49.09;93429.97;5000333;28;20046;-92
2023/04/19 05:52:39;;;;;;;272.80;126.13;;;;;;;15.66;48.67;93426.75;4983735;28;20049;-92
2023/04/19 05:55:05;;;;;;;260.33;131.57;;;;;;;15.68;49.29;93433.22;4958731;28;20137;-90
2023/04/19 05:57:31;;;;;;;312.55;152.95;;;;;;;15.57;49.05;93427.75;4969616;28;20061;-92
2023/04/19 05:59:56;;;;;;;299.80;159.88;;;;;;;15.63;48.80;93425.03;4950956;28;20057;-88
2023/04/19 06:02:21;;;;;;;288.40;150.45;;;;;;;15.66;49.07;93413.88;4971925;28;21104;-90
2023/04/19 06:04:48;;;;;;;273.48;145.32;;;;;;;15.73;49.32;93413.41;4970506;28;20046;-87
2023/04/19 06:07:13;;;;;;;280.02;154.85;;;;;;;15.77;49.24;93405.00;4974522;28;20042;-88
2023/04/19 06:09:39;;;;;;;325.25;185.60;;;;;;;15.79;48.76;93413.41;4980622;28;20042;-91
2023/04/19 06:12:05;;;;;;;312.33;184.73;;;;;;;15.77;49.23;93402.28;4948292;28;20155;-90
2023/04/19 06:14:31;;;;;;;268.83;139.90;;;;;;;15.86;48.92;93407.47;4979899;28;20035;-91
2023/04/19 06:16:57;;;;;;;248.70;137.32;;;;;;;15.76;48.63;93398.81;4972751;28;20074;-91
2023/04/19 06:19:23;;;;;;;245.50;135.18;;;;;;;15.74;49.12;93400.53;4973462;28;20058;-89
2023/04/19 06:21:48;;;;;;;273.27;144.73;;;;;;;15.68;48.95;93399.75;4967555;28;20188;-91
2023/04/19 06:24:14;;;;;;;260.40;136.77;;;;;;;15.70;49.50;93400.03;4983449;28;20046;-91
2023/04/19 06:26:40;;;;;;;228.48;126.60;;;;;;;15.72;49.29;93403.00;4964637;28;20053;-92
2023/04/19 06:29:05;;;;;;;241.98;132.63;;;;;;;15.69;49.42;93399.28;4952243;28;20038;-90
2023/04/19 06:31:32;;;;;;;244.18;136.45;;;;;;;15.64;49.00;93401.97;4978307;28;20042;-90
2023/04/19 06:33:58;;;;;;;252.48;140.70;;;;;;;15.62;48.80;93394.31;4957328;28;20043;-91
2023/04/19 06:36:24;;;;;;;264.75;144.68;;;;;;;15.60;49.23;93387.84;4956451;28;20050;-93
2023/04/19 06:38:49;;;;;;;261.85;142.38;;;;;;;15.62;49.04;93396.28;4956869;28;20034;-92
2023/04/19 06:41:16;;;;;;;289.08;157.65;;;;;;;15.69;49.24;93384.91;4954734;28;20497;-90
2023/04/19 06:43:43;;;;;;;273.13;153.50;;;;;;;15.64;48.77;93397.28;4991212;28;20042;-90
2023/04/19 06:46:09;;;;;;;281.67;154.32;;;;;;;15.81;49.64;93400.03;4964379;28;20125;-90
2023/04/19 06:48:34;;;;;;;321.02;175.15;;;;;;;15.69;49.38;93395.81;4980896;28;20057;-94
2023/04/19 06:51:00;;;;;;;325.50;180.73;;;;;;;15.62;48.80;93397.03;4975347;28;20066;-89
2023/04/19 06:53:27;;;;;;;303.08;177.20;;;;;;;15.70;49.15;93395.31;4986359;28;20045;-92
2023/04/19 06:55:57;;;;;;;331.95;186.20;;;;;;;15.67;48.83;93390.09;4985363;28;20034;-91
2023/04/19 06:58:22;;;;;;;331.07;186.23;;;;;;;15.72;49.18;93392.09;4977981;28;20057;-91
2023/04/19 07:00:48;;;;;;;345.65;198.85;;;;;;;15.69;48.82;93379.47;4982808;28;20777;-91
2023/04/19 07:03:13;;;;;;;341.15;202.68;;;;;;;15.69;48.81;93384.91;4994828;28;20027;-89
2023/04/19 07:05:39;;;;;;;361.15;222.68;;;;;;;15.66;49.24;93389.34;4977734;28;20037;-89
2023/04/19 07:08:05;;;;;;;356.80;206.43;;;;;;;15.68;49.12;93380.69;4987226;28;20105;-91
2023/04/19 07:10:33;;;;;;;377.45;216.55;;;;;;;15.66;48.62;93388.63;4956104;28;20053;-91
2023/04/19 07:12:58;;;;;;;385.30;231.57;;;;;;;15.65;49.07;93392.56;4961349;28;20050;-90
2023/04/19 07:15:25;;;;;;;350.35;211.88;;;;;;;15.72;49.34;93383.91;4986983;28;20096;-90
2023/04/19 07:17:50;;;;;;;341.25;204.60;;;;;;;15.69;49.90;93379.47;4960488;28;20082;-90
2023/04/19 07:20:16;;;;;;;344.85;214.27;;;;;;;15.64;49.22;93377.47;4960546;28;20141;-90
2023/04/19 07:22:41;;;;;;;346.48;213.77;;;;;;;15.70;49.51;93389.88;4980228;28;20050;-91
2023/04/19 07:25:08;;;;;;;338.75;208.98;;;;;;;15.76;49.04;93389.88;4979153;28;20038;-90
2023/04/19 07:27:33;;;;;;;347.17;216.40;;;;;;;15.70;49.07;93383.66;4983703;28;20076;-91
2023/04/19 07:29:59;;;;;;;348.02;215.68;;;;;;;15.68;49.08;93380.69;4957372;28;20046;-87
2023/04/19 07:32:24;;;;;;;328.63;197.38;;;;;;;15.75;49.57;93378.22;4982834;28;20129;-87
2023/04/19 07:34:50;;;;;;;319.25;191.55;;;;;;;15.75;49.58;93380.97;4977186;28;20035;-89
2023/04/19 07:37:16;;;;;;;346.20;216.43;;;;;;;15.67;49.15;93388.13;4951479;28;20047;-89
2023/04/19 07:39:41;;;;;;;320.02;203.93;;;;;;;15.79;49.52;93379.97;4959102;28;20129;-91
2023/04/19 07:42:07;;;;;;;339.08;206.20;;;;;;;15.76;49.51;93385.16;4975043;28;20046;-90
2023/04/19 07:44:32;;;;;;;333.95;208.77;;;;;;;15.67;48.95;93376.47;4981657;28;20046;-89
2023/04/19 07:46:58;;;;;;;313.15;196.50;;;;;;;15.76;49.48;93376.25;4960690;28;20038;-89
2023/04/19 07:49:23;;;;;;;320.88;198.35;;;;;;;15.75;49.48;93380.97;4950637;28;20038;-90
2023/04/19 07:51:49;;;;;;;304.48;185.48;;;;;;;15.81;49.16;93364.59;4976404;28;20043;-90
2023/04/19 07:54:19;;;;;;;318.92;194.93;;;;;;;15.72;48.77;93367.56;4964004;28;20050;-90
2023/04/19 07:56:45;;;;;;;316.75;190.45;;;;;;;15.70;48.80;93375.50;4964578;28;20053;-91
2023/04/19 07:59:10;;;;;;;293.02;178.23;;;;;;;15.79;49.16;93377.25;4973728;28;20408;-90
2023/04/19 08:01:36;;;;;;;299.17;177.60;;;;;;;15.70;49.10;93365.34;4955464;28;20046;-92
2023/04/19 08:04:02;;;;;;;279.33;160.45;;;;;;;15.78;49.18;93365.59;4975619;28;20093;-92
2023/04/19 08:06:29;;;;;;;307.35;174.68;;;;;;;15.71;49.07;93366.81;4954548;28;20054;-90
2023/04/19 08:08:55;;;;;;;301.88;176.25;;;;;;;15.73;49.46;93369.06;4969504;28;21095;-90
2023/04/19 08:11:21;;;;;;;299.23;178.45;;;;;;;15.67;49.46;93371.78;4967518;28;20109;-88
2023/04/19 08:13:47;;;;;;;293.67;172.48;;;;;;;15.71;49.10;93375.00;4977932;28;20125;-89
2023/04/19 08:16:12;;;;;;;282.98;168.52;;;;;;;15.70;49.03;93372.75;4995023;28;20077;-86
2023/04/19 08:18:39;;;;;;;285.42;162.80;;;;;;;15.76;49.40;93368.81;4967163;28;20351;-88
2023/04/19 08:21:05;;;;;;;282.83;155.93;;;;;;;15.78;49.50;93371.06;4963502;28;20565;-89
2023/04/19 08:23:32;;;;;;;282.90;158.88;;;;;;;15.79;49.33;93371.78;4996228;28;20062;-92
2023/04/19 08:26:09;;;;;;;269.13;152.68;;;;;;;15.74;49.26;93365.09;4982404;28;20101;-95
2023/04/19 08:28:35;;;;;;;272.85;156.88;;;;;;;15.74;48.91;93371.28;4979114;28;20038;-91
2023/04/19 08:31:04;;;;;;;256.00;152.57;;;;;;;15.73;49.35;93377.97;4967102;28;20105;-93
2023/04/19 08:33:31;;;;;;;271.63;156.75;;;;;;;15.72;49.15;93381.94;4961585;28;20062;-88
2023/04/19 08:35:58;;;;;;;262.40;153.93;;;;;;;15.76;49.46;93368.81;4988699;28;20054;-91
2023/04/19 08:38:27;;;;;;;271.58;150.48;;;;;;;15.71;48.90;93375.00;4994405;28;20044;-89
2023/04/19 08:40:55;;;;;;;249.02;142.48;;;;;;;15.68;49.51;93373.25;4977334;28;20051;-89
2023/04/19 08:43:42;;;;;;;252.20;140.95;;;;;;;15.74;49.21;93378.72;4954097;28;20050;-93
2023/04/19 08:46:17;;;;;;;226.18;133.25;;;;;;;15.78;49.63;93376.50;4950601;28;20043;-90
2023/04/19 08:48:52;;;;;;;264.38;138.85;;;;;;;15.76;49.22;93378.97;4982326;28;20057;-89
2023/04/19 08:51:20;;;;;;;279.48;140.68;;;;;;;15.79;49.31;93372.53;4967978;28;20038;-93
2023/04/19 08:53:47;;;;;;;247.45;130.75;;;;;;;15.75;49.18;93370.06;4963564;28;20066;-91
2023/04/19 08:56:15;;;;;;;262.65;137.50;;;;;;;15.72;49.35;93370.28;4956563;28;20034;-88
2023/04/19 08:58:43;;;;;;;230.15;127.93;;;;;;;15.79;49.75;93372.53;4991220;28;20047;-95
2023/04/19 09:01:12;;;;;;;230.60;125.47;;;;;;;15.82;49.07;93374.25;4963849;28;20065;-92
2023/04/19 09:03:43;;;;;;;222.20;124.22;;;;;;;15.77;49.41;93380.47;4920894;29;20050;-93
2023/04/19 09:06:10;;;;;;;207.52;119.32;;;;;;;15.79;49.79;93379.97;4875479;29;20040;-90
2023/04/19 09:08:36;;;;;;;207.05;116.70;;;;;;;15.82;49.88;93371.53;4892002;29;20048;-93
2023/04/19 09:11:01;;;;;;;213.85;118.28;;;;;;;15.76;49.41;93365.34;4912630;29;20051;-90
2023/04/19 09:13:29;;;;;;;246.05;127.20;;;;;;;15.75;49.45;93363.84;4895920;29;20052;-88
2023/04/19 09:15:56;;;;;;;220.18;115.32;;;;;;;15.75;49.18;93369.31;4874805;29;20045;-96
2023/04/19 09:18:24;;;;;;;206.45;113.75;;;;;;;15.72;49.33;93362.88;4853412;29;20049;-93
2023/04/19 09:21:01;;;;;;;181.27;99.80;;;;;;;15.80;49.66;93363.13;4877429;29;20052;-94
2023/04/19 09:23:27;;;;;;;219.27;110.35;;;;;;;15.75;49.38;93359.16;4887524;23;20128;-94
2023/04/19 09:26:03;;;;;;;178.90;98.00;;;;;;;15.81;49.26;93372.03;5009831;23;20036;-94
2023/04/19 09:29:03;;;;;;;207.57;105.63;;;;;;;15.77;49.20;93364.84;5058641;23;20062;-92
2023/04/19 09:31:34;;;;;;;187.50;98.15;;;;;;;15.76;49.48;93357.91;4942942;28;20099;-90
2023/04/19 09:34:18;;;;;;;189.70;99.43;;;;;;;15.83;49.67;93348.47;4950471;28;20050;-93
2023/04/19 09:40:23;;;;;;;199.85;104.07;;;;;;;15.79;49.19;93344.53;5569097;23;20050;-92
2023/04/19 09:42:57;;;;;;;206.45;104.18;;;;;;;15.80;49.15;93352.22;4937220;23;20054;-89
2023/04/19 09:45:22;;;;;;;198.77;98.43;;;;;;;15.88;49.56;93338.81;4928339;29;20081;-91
2023/04/19 09:48:03;;;;;;;207.60;104.18;;;;;;;15.79;48.97;93339.84;4920345;29;20514;-93
2023/04/19 09:50:31;;;;;;;194.43;104.28;;;;;;;15.82;49.42;93343.53;4903026;29;20050;-93
2023/04/19 09:52:56;;;;;;;178.52;101.13;;;;;;;15.80;49.21;93344.03;4888239;29;20040;-93
2023/04/19 09:55:31;;;;;;;184.02;101.30;;;;;;;15.78;49.16;93335.63;4918302;29;20044;-95
2023/04/19 09:57:56;;;;;;;185.00;99.75;;;;;;;15.79;49.26;93331.66;4921249;29;20049;-94
2023/04/19 10:00:23;;;;;;;175.60;94.88;;;;;;;15.82;49.31;93332.63;4889736;29;20079;-94
2023/04/19 10:02:54;;;;;;;195.93;98.85;;;;;;;15.74;49.15;93333.13;4919914;29;20108;-92
2023/04/19 10:05:21;;;;;;;134.68;70.53;;;;;;;15.68;48.85;93328.91;4875293;29;20052;-89
2023/04/19 10:07:47;;;;;;;112.28;62.75;;;;;;;15.69;49.19;93331.16;4877072;29;20147;-91
2023/04/19 10:10:14;;;;;;;131.90;71.15;;;;;;;15.67;49.03;93327.44;4896547;29;20128;-91
2023/04/19 10:12:41;;;;;;;110.13;58.25;;;;;;;15.74;49.32;93329.66;4918011;29;20572;-90
2023/04/19 10:15:08;;;;;;;128.27;70.68;;;;;;;15.76;49.40;93329.91;4909491;29;20045;-90
2023/04/19 10:17:33;;;;;;;133.10;74.07;;;;;;;15.76;49.18;93314.31;4864636;29;20063;-89
2023/04/19 10:20:05;;;;;;;128.18;73.72;;;;;;;15.79;49.26;93311.84;4895169;29;20047;-90
2023/04/19 10:22:31;;;;;;;195.30;111.18;;;;;;;15.87;49.31;93312.81;4878967;29;20058;-89
2023/04/19 10:25:14;;;;;;;143.73;74.40;;;;;;;15.80;49.51;93316.78;4894712;29;20056;-90
2023/04/19 10:27:40;;;;;;;134.73;72.30;;;;;;;15.83;49.35;93317.75;4894304;29;20131;-89
2023/04/19 10:30:11;;;;;;;237.45;81.32;;;;;;;15.83;48.89;93315.03;4878533;29;20514;-89
2023/04/19 10:32:43;;;;;;;121.53;68.78;;;;;;;15.87;49.19;93307.34;4915488;29;20052;-90
2023/04/19 10:35:08;;;;;;;130.02;74.68;;;;;;;15.82;49.48;93308.09;4912946;29;20071;-89
2023/04/19 10:37:34;;;;;;;119.63;71.20;;;;;;;15.79;49.75;93296.22;4919533;29;20078;-91
2023/04/19 10:39:59;;;;;;;132.73;75.80;;;;;;;15.82;49.91;93294.47;4896918;29;20152;-90
2023/04/19 10:42:52;;;;;;;111.38;65.93;;;;;;;15.80;49.52;93300.44;4894294;29;20044;-90
2023/04/19 10:45:36;;;;;;;125.82;70.85;;;;;;;15.83;49.41;93298.69;4916728;29;20048;-88
2023/04/19 10:48:06;;;;;;;94.10;52.33;;;;;;;15.84;49.28;93294.72;4905458;29;20056;-89
2023/04/19 10:51:01;;;;;;;95.30;47.30;;;;;;;15.71;49.06;93298.69;4892492;29;20055;-89
2023/04/19 10:53:49;;;;;;;202.38;50.55;;;;;;;15.79;48.78;93298.94;4908593;29;20043;-88
2023/04/19 10:56:16;;;;;;;175.23;53.10;;;;;;;15.75;48.86;93291.03;4939333;28;20047;-88
2023/04/19 10:59:12;;;;;;;222.52;57.40;;;;;;;15.79;48.74;93288.06;4884473;29;20036;-89
2023/04/19 11:01:38;;;;;;;209.93;69.13;;;;;;;15.86;49.07;93279.34;4935602;29;20067;-89
2023/04/19 11:04:07;;;;;;;200.07;68.20;;;;;;;15.87;48.73;93289.03;4930303;29;20056;-89
2023/04/19 11:06:32;;;;;;;205.65;69.47;;;;;;;15.85;49.81;93282.56;4907328;29;20047;-90
2023/04/19 11:09:04;;;;;;;202.65;72.97;;;;;;;15.79;49.32;93285.31;4905507;29;20093;-92
2023/04/19 11:11:32;;;;;;;196.23;67.45;;;;;;;15.91;49.96;93289.50;4904767;29;20063;-95
2023/04/19 11:14:01;;;;;;;170.55;63.95;;;;;;;15.91;49.86;93284.06;4939224;29;20054;-94